Anco, Kentucky
Current Conditions -  °F | °C
As of 8:53 PM on Friday 19 Dec 2014 (Local Time) from KJKL Reporting Station
Clear Clear  
Wind Chill: 23°   Ceiling: Unl
Heat Index: 29°   Visibility: 10mi
Dew Point: 21°   Wind: 6mph
Humidity: 72%   Direction: NA
Pressure: 30.22"   Gusts: NA
Location:  37.2376°N, 83.0326°W
Report Text: KJKL 200153Z AUTO VRB05KT 10SM CLR M02/M06 A3022 RMK AO2 SLP246 T10171061
Loading
Personal Weather Stations






























Interactive Weather Map New forecast layout! Learn more

10-Day Weather Forecast

Advertisements
Track Severe Weather on mobile